<?xml version="1.0" encoding="UTF-8" standalone="no" ?>
<gpx xmlns="http://www.topografix.com/GPX/1/1" xmlns:xsi="http://www.w3.org/2001/XMLSchema-instance" xsi:schemaLocation="http://www.topografix.com/GPX/1/1 http://www.topografix.com/GPX/1/1/gpx.xsd" version="1.1" creator="VisuGPX - https://www.visugpx.com">
  <metadata>
    <name>Montflanquin Gravel</name>
    <desc><![CDATA[Hors asphalte gravel OK (testé avec Diverge 4, pneus 50mm)]]></desc>
  </metadata>
  <wpt lat="44.5662" lon="0.73317">
    <ele>120.6</ele>
    <name><![CDATA[David haut/bas]]></name>
  </wpt>
  <wpt lat="44.55013" lon="0.85946">
    <ele>126.4</ele>
  </wpt>
  <trk>
    <name><![CDATA[Montflanquin Gravel_15]]></name>
    <trkseg>
      <trkpt lat="44.64065" lon="0.88149">
        <ele>190.8</ele>
        <time>2026-08-23T08:11:00Z</time>
      </trkpt>
      <trkpt lat="44.64069" lon="0.88126">
        <ele>190.2</ele>
        <time>2026-08-23T08:11:04Z</time>
      </trkpt>
      <trkpt lat="44.64063" lon="0.88031">
        <ele>191.8</ele>
        <time>2026-08-23T08:11:20Z</time>
      </trkpt>
      <trkpt lat="44.63993" lon="0.87858">
        <ele>189.8</ele>
        <time>2026-08-23T08:11:44Z</time>
      </trkpt>
      <trkpt lat="44.63973" lon="0.878">
        <ele>189.4</ele>
        <time>2026-08-23T08:11:52Z</time>
      </trkpt>
      <trkpt lat="44.63943" lon="0.87743">
        <ele>187.8</ele>
        <time>2026-08-23T08:12:00Z</time>
      </trkpt>
      <trkpt lat="44.63907" lon="0.87693">
        <ele>186.2</ele>
        <time>2026-08-23T08:12:08Z</time>
      </trkpt>
      <trkpt lat="44.63887" lon="0.87632">
        <ele>185.2</ele>
        <time>2026-08-23T08:12:16Z</time>
      </trkpt>
      <trkpt lat="44.63878" lon="0.87569">
        <ele>185.4</ele>
        <time>2026-08-23T08:12:24Z</time>
      </trkpt>
      <trkpt lat="44.63868" lon="0.87448">
        <ele>186.6</ele>
        <time>2026-08-23T08:12:40Z</time>
      </trkpt>
      <trkpt lat="44.63869" lon="0.87397">
        <ele>188.4</ele>
        <time>2026-08-23T08:12:48Z</time>
      </trkpt>
      <trkpt lat="44.63879" lon="0.87349">
        <ele>189</ele>
        <time>2026-08-23T08:12:56Z</time>
      </trkpt>
      <trkpt lat="44.63985" lon="0.87135">
        <ele>194.6</ele>
        <time>2026-08-23T08:13:36Z</time>
      </trkpt>
      <trkpt lat="44.64028" lon="0.86976">
        <ele>194.8</ele>
        <time>2026-08-23T08:14:00Z</time>
      </trkpt>
      <trkpt lat="44.64039" lon="0.86861">
        <ele>194.6</ele>
        <time>2026-08-23T08:14:16Z</time>
      </trkpt>
      <trkpt lat="44.64038" lon="0.86796">
        <ele>194.2</ele>
        <time>2026-08-23T08:14:24Z</time>
      </trkpt>
      <trkpt lat="44.64024" lon="0.8667">
        <ele>191.6</ele>
        <time>2026-08-23T08:14:40Z</time>
      </trkpt>
      <trkpt lat="44.64011" lon="0.86625">
        <ele>191.6</ele>
        <time>2026-08-23T08:14:48Z</time>
      </trkpt>
      <trkpt lat="44.63997" lon="0.86552">
        <ele>189.6</ele>
        <time>2026-08-23T08:14:56Z</time>
      </trkpt>
      <trkpt lat="44.63986" lon="0.8642">
        <ele>188.8</ele>
        <time>2026-08-23T08:15:12Z</time>
      </trkpt>
      <trkpt lat="44.63992" lon="0.86299">
        <ele>190.6</ele>
        <time>2026-08-23T08:15:28Z</time>
      </trkpt>
      <trkpt lat="44.64034" lon="0.85977">
        <ele>183.2</ele>
        <time>2026-08-23T08:15:56Z</time>
      </trkpt>
      <trkpt lat="44.64031" lon="0.85938">
        <ele>182.4</ele>
        <time>2026-08-23T08:16:00Z</time>
      </trkpt>
      <trkpt lat="44.64024" lon="0.8592">
        <ele>181.8</ele>
        <time>2026-08-23T08:16:04Z</time>
      </trkpt>
      <trkpt lat="44.64" lon="0.85922">
        <ele>181</ele>
        <time>2026-08-23T08:16:12Z</time>
      </trkpt>
      <trkpt lat="44.63918" lon="0.85908">
        <ele>181.6</ele>
        <time>2026-08-23T08:16:44Z</time>
      </trkpt>
      <trkpt lat="44.63883" lon="0.85896">
        <ele>182.2</ele>
        <time>2026-08-23T08:17:13Z</time>
      </trkpt>
      <trkpt lat="44.63856" lon="0.85878">
        <ele>182</ele>
        <time>2026-08-23T08:17:29Z</time>
      </trkpt>
      <trkpt lat="44.6383" lon="0.85836">
        <ele>182.2</ele>
        <time>2026-08-23T08:17:43Z</time>
      </trkpt>
      <trkpt lat="44.63785" lon="0.85783">
        <ele>179.6</ele>
        <time>2026-08-23T08:17:55Z</time>
      </trkpt>
      <trkpt lat="44.63748" lon="0.85714">
        <ele>178.2</ele>
        <time>2026-08-23T08:18:11Z</time>
      </trkpt>
      <trkpt lat="44.63735" lon="0.85702">
        <ele>176.6</ele>
        <time>2026-08-23T08:18:19Z</time>
      </trkpt>
      <trkpt lat="44.63718" lon="0.85699">
        <ele>175.8</ele>
        <time>2026-08-23T08:18:23Z</time>
      </trkpt>
      <trkpt lat="44.63702" lon="0.85675">
        <ele>174.4</ele>
        <time>2026-08-23T08:18:35Z</time>
      </trkpt>
      <trkpt lat="44.6369" lon="0.85663">
        <ele>174.4</ele>
        <time>2026-08-23T08:18:39Z</time>
      </trkpt>
      <trkpt lat="44.63628" lon="0.85649">
        <ele>180.4</ele>
        <time>2026-08-23T08:19:03Z</time>
      </trkpt>
      <trkpt lat="44.63559" lon="0.85602">
        <ele>187.2</ele>
        <time>2026-08-23T08:19:35Z</time>
      </trkpt>
      <trkpt lat="44.63514" lon="0.85552">
        <ele>190</ele>
        <time>2026-08-23T08:19:59Z</time>
      </trkpt>
      <trkpt lat="44.63476" lon="0.85533">
        <ele>191</ele>
        <time>2026-08-23T08:20:11Z</time>
      </trkpt>
      <trkpt lat="44.63471" lon="0.85523">
        <ele>191.4</ele>
        <time>2026-08-23T08:20:15Z</time>
        <extensions>
          <visugpx:TrkExtension xmlns:visugpx="https://www.visugpx.com/editgpx/">
            <visugpx:node>1</visugpx:node>
            </visugpx:TrkExtension>
        </extensions>
      </trkpt>
    </trkseg>
  </trk>
</gpx>